Time;durP1;ratioP1;P1;durP2;ratioP2;P2;SDS_P1;SDS_P2;PMS_P1;PMS_P2;Temp;Humidity;BMP_temperature;BMP_pressure;BME280_temperature;BME280_humidity;BME280_pressure;Samples;Min_cycle;Max_cycle;Signal;HPM_P1;HPM_P2
2024/04/20 00:01:39;;;;;;;15.30;14.30;;;5.30;99.90;;;;;;5273875;27;20246;-79
2024/04/20 00:04:07;;;;;;;15.63;14.57;;;5.30;99.90;;;;;;5247726;27;20783;-79
2024/04/20 00:06:36;;;;;;;15.30;14.40;;;5.30;99.90;;;;;;5247630;27;20329;-78
2024/04/20 00:09:07;;;;;;;15.40;14.40;;;5.30;99.90;;;;;;5242808;27;20247;-79
2024/04/20 00:11:36;;;;;;;15.20;14.30;;;5.30;99.90;;;;;;5249405;27;20241;-79
2024/04/20 00:14:05;;;;;;;15.23;14.20;;;5.30;99.90;;;;;;5256342;27;20282;-79
2024/04/20 00:16:33;;;;;;;15.10;14.30;;;5.30;99.90;;;;;;5253754;27;20284;-78
2024/04/20 00:19:02;;;;;;;15.30;14.40;;;5.20;99.90;;;;;;5253644;27;20342;-79
2024/04/20 00:21:30;;;;;;;15.90;14.70;;;5.20;99.90;;;;;;5253444;27;20761;-78
2024/04/20 00:23:58;;;;;;;15.27;14.37;;;5.20;99.90;;;;;;5257139;27;20250;-79
2024/04/20 00:26:30;;;;;;;15.67;14.67;;;5.20;99.90;;;;;;5247855;27;20292;-79
2024/04/20 00:28:58;;;;;;;15.30;14.40;;;5.20;99.90;;;;;;5252958;27;20307;-79
2024/04/20 00:31:26;;;;;;;14.97;14.17;;;5.20;99.90;;;;;;5259191;27;20579;-79
2024/04/20 00:33:55;;;;;;;15.33;14.33;;;5.20;99.90;;;;;;5251827;27;20294;-79
2024/04/20 00:36:21;;;;;;;15.03;14.03;;;5.20;99.90;;;;;;5255188;27;20281;-78
2024/04/20 00:38:49;;;;;;;15.33;14.37;;;5.30;99.90;;;;;;5251585;27;20234;-79
2024/04/20 00:41:18;;;;;;;14.90;14.00;;;5.20;99.90;;;;;;5250268;27;20315;-78
2024/04/20 00:43:50;;;;;;;15.20;14.00;;;5.20;99.90;;;;;;5252086;27;20238;-80
2024/04/20 00:46:18;;;;;;;15.23;14.10;;;5.20;99.90;;;;;;5241907;27;20274;-78
2024/04/20 00:48:47;;;;;;;14.57;13.70;;;5.20;99.90;;;;;;5248940;27;20288;-79
2024/04/20 00:51:16;;;;;;;15.37;14.47;;;5.10;99.90;;;;;;5247753;27;20279;-78
2024/04/20 00:53:46;;;;;;;14.60;13.70;;;5.10;99.90;;;;;;5246296;27;20305;-79
2024/04/20 00:56:15;;;;;;;15.03;14.10;;;5.10;99.90;;;;;;5233771;27;20235;-78
2024/04/20 00:58:50;;;;;;;14.90;13.90;;;5.10;99.90;;;;;;5247366;27;20279;-79
2024/04/20 01:01:19;;;;;;;15.63;14.17;;;5.20;99.90;;;;;;5260553;27;20245;-78
2024/04/20 01:03:47;;;;;;;15.37;14.27;;;5.20;99.90;;;;;;5248726;27;20759;-78
2024/04/20 01:06:16;;;;;;;15.23;14.23;;;5.20;99.90;;;;;;5250675;27;20840;-78
2024/04/20 01:08:44;;;;;;;15.53;14.47;;;5.20;99.90;;;;;;5246296;27;20617;-79
2024/04/20 01:11:15;;;;;;;15.33;14.33;;;5.20;99.90;;;;;;5246798;27;20246;-79
2024/04/20 01:13:51;;;;;;;14.83;13.90;;;5.20;99.90;;;;;;5246005;27;20374;-79
2024/04/20 01:16:22;;;;;;;14.17;13.37;;;5.20;99.90;;;;;;5251779;27;20234;-79
2024/04/20 01:18:50;;;;;;;14.90;13.80;;;5.30;99.90;;;;;;5284678;27;20266;-79
2024/04/20 01:21:19;;;;;;;14.93;14.03;;;5.30;99.90;;;;;;5251018;27;20292;-79
2024/04/20 01:23:52;;;;;;;15.80;14.53;;;5.30;99.90;;;;;;5272353;27;20247;-79
2024/04/20 01:26:23;;;;;;;15.53;14.40;;;5.30;99.90;;;;;;5249695;27;20291;-79
2024/04/20 01:28:51;;;;;;;14.97;14.00;;;5.30;99.90;;;;;;5258697;27;20306;-79
2024/04/20 01:31:20;;;;;;;15.03;14.03;;;5.30;99.90;;;;;;5249100;27;20239;-79
2024/04/20 01:33:48;;;;;;;15.60;14.40;;;5.30;99.90;;;;;;5248748;27;20285;-79
2024/04/20 01:36:17;;;;;;;15.53;14.33;;;5.30;99.90;;;;;;5252772;27;20339;-78
2024/04/20 01:38:45;;;;;;;14.90;13.80;;;5.30;99.90;;;;;;5241724;27;20238;-78
2024/04/20 01:41:14;;;;;;;14.17;13.37;;;5.30;99.90;;;;;;5247734;27;20795;-78
2024/04/20 01:43:45;;;;;;;15.17;13.87;;;5.30;99.90;;;;;;5255974;27;20239;-79
2024/04/20 01:46:13;;;;;;;14.60;13.70;;;5.30;99.90;;;;;;5277129;27;20239;-79
2024/04/20 01:48:41;;;;;;;14.47;13.40;;;5.30;99.90;;;;;;5243650;27;20281;-79
2024/04/20 01:51:10;;;;;;;14.27;13.27;;;5.30;99.90;;;;;;5248056;27;20862;-79
2024/04/20 01:53:39;;;;;;;14.53;13.43;;;5.30;99.90;;;;;;5262761;27;20832;-78
2024/04/20 01:56:08;;;;;;;14.10;13.20;;;5.30;99.90;;;;;;5248843;27;20240;-79
2024/04/20 01:58:34;;;;;;;15.20;13.87;;;5.30;99.90;;;;;;5254307;27;20321;-79
2024/04/20 02:01:05;;;;;;;14.80;13.80;;;5.40;99.90;;;;;;5272736;27;20257;-78
2024/04/20 02:03:33;;;;;;;14.50;13.60;;;5.40;99.90;;;;;;5261173;27;20296;-79
2024/04/20 02:06:02;;;;;;;14.40;13.50;;;5.40;99.90;;;;;;5246800;27;20576;-78
2024/04/20 02:08:30;;;;;;;14.10;13.10;;;5.40;99.90;;;;;;5255166;27;20241;-79
2024/04/20 02:10:58;;;;;;;14.30;13.33;;;5.40;99.90;;;;;;5260907;27;20242;-79
2024/04/20 02:13:27;;;;;;;14.90;13.80;;;5.30;99.90;;;;;;5254157;27;20296;-78
2024/04/20 02:15:56;;;;;;;14.47;13.23;;;5.30;99.90;;;;;;5284894;27;20596;-78
2024/04/20 02:18:28;;;;;;;15.37;13.97;;;5.40;99.90;;;;;;5247211;27;20291;-78
2024/04/20 02:20:56;;;;;;;14.70;13.70;;;5.30;99.90;;;;;;5256219;27;20236;-79
2024/04/20 02:23:25;;;;;;;15.07;13.83;;;5.40;99.90;;;;;;5247807;27;20236;-79
2024/04/20 02:25:53;;;;;;;14.20;13.30;;;5.40;99.90;;;;;;5257656;27;20281;-78
2024/04/20 02:28:22;;;;;;;14.40;13.50;;;5.40;99.90;;;;;;5257026;27;21150;-77
2024/04/20 02:30:50;;;;;;;14.27;13.33;;;5.30;99.90;;;;;;5250050;27;20325;-78
2024/04/20 02:33:19;;;;;;;14.50;13.20;;;5.30;99.90;;;;;;5257745;27;20286;-79
2024/04/20 02:35:50;;;;;;;14.10;12.80;;;5.30;99.90;;;;;;5252666;27;20600;-78
2024/04/20 02:38:18;;;;;;;13.97;13.03;;;5.30;99.90;;;;;;5281431;27;20275;-79
2024/04/20 02:40:47;;;;;;;13.40;12.60;;;5.30;99.90;;;;;;5246567;27;20247;-79
2024/04/20 02:43:16;;;;;;;13.67;12.77;;;5.20;99.90;;;;;;5255417;27;20241;-79
2024/04/20 02:45:44;;;;;;;14.10;13.00;;;5.20;99.90;;;;;;5253114;27;20235;-79
2024/04/20 02:48:13;;;;;;;13.70;12.63;;;5.20;99.90;;;;;;5242530;27;20275;-78
2024/04/20 02:50:41;;;;;;;14.03;13.00;;;5.10;99.90;;;;;;5249390;27;20839;-79
2024/04/20 02:53:13;;;;;;;14.50;13.20;;;5.10;99.90;;;;;;5241064;27;20243;-80
2024/04/20 02:55:41;;;;;;;14.60;13.40;;;5.10;99.90;;;;;;5258504;27;20251;-80
2024/04/20 02:58:09;;;;;;;14.97;13.67;;;5.10;99.90;;;;;;5251696;27;20751;-80
2024/04/20 03:00:35;;;;;;;15.27;13.73;;;5.10;99.90;;;;;;5257231;27;20384;-79
2024/04/20 03:03:04;;;;;;;13.90;12.90;;;5.00;99.90;;;;;;5252536;27;20246;-80
2024/04/20 03:05:32;;;;;;;14.10;13.10;;;5.10;99.90;;;;;;5245015;27;20234;-79
2024/04/20 03:08:01;;;;;;;14.73;13.57;;;5.00;99.90;;;;;;5247473;27;20280;-79
2024/04/20 03:10:32;;;;;;;13.83;12.63;;;5.00;99.90;;;;;;5255485;27;20293;-83
2024/04/20 03:13:00;;;;;;;13.73;12.80;;;5.00;99.90;;;;;;5250063;27;20239;-83
2024/04/20 03:15:29;;;;;;;14.03;13.13;;;5.00;99.90;;;;;;5252170;27;20254;-80
2024/04/20 03:17:57;;;;;;;14.27;13.10;;;5.00;99.90;;;;;;5249773;27;20363;-80
2024/04/20 03:20:26;;;;;;;14.17;13.10;;;5.00;99.90;;;;;;5271559;27;20242;-79
2024/04/20 03:22:54;;;;;;;13.83;12.73;;;5.00;99.90;;;;;;5274890;27;20432;-80
2024/04/20 03:25:23;;;;;;;13.30;12.40;;;5.00;99.90;;;;;;5258073;27;20277;-80
2024/04/20 03:27:54;;;;;;;14.00;13.00;;;5.00;99.90;;;;;;5304633;27;20243;-79
2024/04/20 03:30:22;;;;;;;13.77;12.63;;;5.00;99.90;;;;;;5304873;27;20292;-80
2024/04/20 03:32:51;;;;;;;13.53;12.53;;;5.00;99.90;;;;;;5247055;27;20247;-80
2024/04/20 03:35:19;;;;;;;13.00;12.10;;;5.00;99.90;;;;;;5258528;27;20330;-79
2024/04/20 03:37:48;;;;;;;13.33;12.33;;;5.00;99.90;;;;;;5270100;27;20260;-79
2024/04/20 03:40:16;;;;;;;14.00;12.63;;;5.00;99.90;;;;;;5267333;27;20241;-79
2024/04/20 03:42:45;;;;;;;13.10;12.20;;;5.00;99.90;;;;;;5271694;27;20310;-79
2024/04/20 03:45:16;;;;;;;13.57;12.53;;;5.00;99.90;;;;;;5276596;27;20286;-80
2024/04/20 03:47:44;;;;;;;13.03;11.93;;;5.00;99.90;;;;;;5276647;27;20810;-79
2024/04/20 03:50:13;;;;;;;12.93;11.97;;;5.00;99.90;;;;;;5266087;27;20309;-79
2024/04/20 03:52:41;;;;;;;13.20;12.30;;;4.90;99.90;;;;;;5265893;27;20244;-79
2024/04/20 03:55:10;;;;;;;12.93;12.03;;;4.90;99.90;;;;;;5273954;27;21056;-79
2024/04/20 03:57:38;;;;;;;13.33;12.13;;;4.90;99.90;;;;;;5267057;27;20591;-79
2024/04/20 04:00:08;;;;;;;13.50;12.50;;;5.00;99.90;;;;;;5271575;27;20282;-79
2024/04/20 04:02:39;;;;;;;13.80;12.80;;;4.90;99.90;;;;;;5277434;27;20284;-79
2024/04/20 04:05:08;;;;;;;13.90;12.57;;;4.90;99.90;;;;;;5269849;27;20238;-76
2024/04/20 04:07:37;;;;;;;13.60;12.70;;;4.90;99.90;;;;;;5265405;27;20280;-79
2024/04/20 04:10:06;;;;;;;13.70;12.63;;;4.90;99.90;;;;;;5276214;27;20242;-80
2024/04/20 04:12:34;;;;;;;13.77;12.60;;;4.90;99.90;;;;;;5262737;27;20242;-77
2024/04/20 04:15:03;;;;;;;14.23;13.20;;;4.90;99.90;;;;;;5256531;27;20238;-77
2024/04/20 04:17:31;;;;;;;13.43;12.60;;;4.90;99.90;;;;;;5257892;27;20242;-77
2024/04/20 04:20:02;;;;;;;13.83;12.83;;;4.90;99.90;;;;;;5261908;27;20289;-79
2024/04/20 04:22:31;;;;;;;13.40;12.60;;;4.80;99.90;;;;;;5267192;27;20297;-77
2024/04/20 04:24:59;;;;;;;13.17;12.30;;;4.80;99.90;;;;;;5241079;27;20292;-79
2024/04/20 04:27:28;;;;;;;13.20;12.40;;;4.80;99.90;;;;;;5242993;27;20304;-79
2024/04/20 04:29:56;;;;;;;13.30;12.40;;;4.80;99.90;;;;;;5286836;27;20250;-77
2024/04/20 04:32:24;;;;;;;13.17;12.30;;;4.80;99.90;;;;;;5242385;27;20276;-76
2024/04/20 04:34:53;;;;;;;13.80;12.70;;;4.70;99.90;;;;;;5258258;27;20237;-80
2024/04/20 04:37:27;;;;;;;13.30;12.47;;;4.70;99.90;;;;;;5241118;27;20245;-76
2024/04/20 04:39:56;;;;;;;14.00;12.90;;;4.70;99.90;;;;;;5245910;27;20300;-80
2024/04/20 04:42:26;;;;;;;14.40;13.07;;;4.70;99.90;;;;;;5254215;27;20280;-78
2024/04/20 04:44:55;;;;;;;13.50;12.50;;;4.80;99.90;;;;;;5255085;27;20233;-80
2024/04/20 04:47:24;;;;;;;13.57;12.57;;;4.80;99.90;;;;;;5240925;27;20761;-80
2024/04/20 04:49:52;;;;;;;13.27;12.20;;;4.80;99.90;;;;;;5249576;27;20284;-77
2024/04/20 04:52:24;;;;;;;13.20;12.40;;;4.90;99.90;;;;;;5240212;27;20708;-81
2024/04/20 04:54:53;;;;;;;14.13;13.00;;;4.90;99.90;;;;;;5244629;27;20927;-81
2024/04/20 04:57:21;;;;;;;13.47;12.63;;;4.90;99.90;;;;;;5251988;27;20378;-81
2024/04/20 04:59:50;;;;;;;13.00;12.20;;;5.00;99.90;;;;;;5244367;27;20250;-78
2024/04/20 05:02:18;;;;;;;13.10;12.30;;;5.00;99.90;;;;;;5252668;27;20274;-80
2024/04/20 05:04:47;;;;;;;13.77;12.87;;;5.10;99.90;;;;;;5260078;27;20729;-79
2024/04/20 05:07:15;;;;;;;13.40;12.50;;;5.10;99.90;;;;;;5255782;27;20280;-80
2024/04/20 05:09:46;;;;;;;14.20;13.17;;;5.10;99.90;;;;;;5257280;27;20248;-82
2024/04/20 05:12:15;;;;;;;13.73;12.93;;;5.20;99.90;;;;;;5249634;27;20311;-78
2024/04/20 05:14:43;;;;;;;14.00;13.13;;;5.20;99.90;;;;;;5253336;27;20278;-82
2024/04/20 05:17:12;;;;;;;13.60;12.70;;;5.20;99.90;;;;;;5256694;27;20271;-83
2024/04/20 05:19:40;;;;;;;13.63;12.63;;;5.30;99.90;;;;;;5248123;27;20358;-80
2024/04/20 05:22:09;;;;;;;13.43;12.53;;;5.30;99.90;;;;;;5247782;27;20248;-84
2024/04/20 05:24:37;;;;;;;13.33;12.43;;;5.30;99.90;;;;;;5261628;27;20304;-81
2024/04/20 05:27:08;;;;;;;13.30;12.50;;;5.30;99.90;;;;;;5261324;27;20239;-80
2024/04/20 05:29:37;;;;;;;13.20;12.30;;;5.20;99.90;;;;;;5265308;27;20240;-82
2024/04/20 05:32:06;;;;;;;13.30;12.40;;;5.20;99.90;;;;;;5259863;27;20372;-82
2024/04/20 05:34:35;;;;;;;13.70;12.70;;;5.20;99.90;;;;;;5258417;27;20247;-78
2024/04/20 05:37:03;;;;;;;13.40;12.50;;;5.20;99.90;;;;;;5244886;27;20596;-81
2024/04/20 05:39:33;;;;;;;14.33;13.30;;;5.10;99.90;;;;;;5236589;27;20243;-81
2024/04/20 05:42:01;;;;;;;14.10;13.00;;;5.10;99.90;;;;;;5247617;27;20634;-81
2024/04/20 05:44:32;;;;;;;13.40;12.60;;;5.10;99.90;;;;;;5253470;27;20244;-82
2024/04/20 05:47:01;;;;;;;13.70;12.80;;;5.10;99.90;;;;;;5253007;27;20244;-81
2024/04/20 05:49:29;;;;;;;13.77;12.87;;;5.10;99.90;;;;;;5248357;27;20599;-82
2024/04/20 05:51:58;;;;;;;13.37;12.57;;;5.10;99.90;;;;;;5251953;27;20315;-81
2024/04/20 05:54:26;;;;;;;13.90;12.90;;;5.10;99.90;;;;;;5283096;27;20598;-82
2024/04/20 05:56:55;;;;;;;13.53;12.67;;;5.10;99.90;;;;;;5250222;27;20348;-81
2024/04/20 05:59:23;;;;;;;13.77;12.73;;;5.30;99.90;;;;;;5255369;27;20292;-81
2024/04/20 06:01:54;;;;;;;13.70;12.70;;;5.40;99.90;;;;;;5258114;27;21399;-83
2024/04/20 06:04:22;;;;;;;13.80;12.80;;;5.50;99.90;;;;;;5245465;27;20330;-81
2024/04/20 06:06:51;;;;;;;13.37;12.47;;;5.60;99.90;;;;;;5248129;27;20243;-85
2024/04/20 06:09:19;;;;;;;12.40;11.60;;;5.70;99.90;;;;;;5271786;27;20308;-83
2024/04/20 06:11:48;;;;;;;11.27;10.47;;;5.80;99.90;;;;;;5245745;27;20256;-78
2024/04/20 06:14:17;;;;;;;4.00;3.70;;;5.80;99.90;;;;;;5249555;27;20245;-82
2024/04/20 06:16:46;;;;;;;21.37;6.70;;;5.90;99.90;;;;;;5250716;27;20303;-77
2024/04/20 06:19:17;;;;;;;13.37;12.37;;;6.10;99.90;;;;;;5258309;27;20729;-80
2024/04/20 06:21:45;;;;;;;11.33;9.73;;;6.20;99.90;;;;;;5252533;27;20242;-82
2024/04/20 06:24:13;;;;;;;4.23;3.80;;;6.30;99.90;;;;;;5239509;27;20615;-78
2024/04/20 06:26:42;;;;;;;11.90;11.10;;;6.40;99.90;;;;;;5244162;27;20252;-82
2024/04/20 06:29:10;;;;;;;11.80;11.10;;;6.50;99.90;;;;;;5248990;27;20302;-82
2024/04/20 06:31:41;;;;;;;12.77;11.97;;;6.60;99.90;;;;;;5258097;27;20236;-78
2024/04/20 06:34:10;;;;;;;12.33;11.47;;;6.70;99.90;;;;;;5241696;27;20253;-83
2024/04/20 06:36:41;;;;;;;14.80;13.80;;;6.80;99.90;;;;;;5244882;27;20278;-82
2024/04/20 06:39:10;;;;;;;6.30;5.80;;;6.80;99.90;;;;;;5258666;27;20250;-81
2024/04/20 06:41:38;;;;;;;8.57;7.87;;;6.70;99.90;;;;;;5257850;27;20274;-82
2024/04/20 06:44:07;;;;;;;10.97;10.27;;;6.60;99.90;;;;;;5285935;27;20248;-80
2024/04/20 06:46:35;;;;;;;12.37;11.60;;;6.50;99.90;;;;;;5291791;27;20287;-79
2024/04/20 06:49:04;;;;;;;8.60;8.00;;;6.40;99.90;;;;;;5246981;27;20241;-81
2024/04/20 06:51:32;;;;;;;7.30;6.70;;;6.30;99.90;;;;;;5234123;27;20240;-81
2024/04/20 06:54:03;;;;;;;10.03;9.40;;;6.40;99.90;;;;;;5266757;27;20238;-81
2024/04/20 06:56:32;;;;;;;9.20;8.30;;;6.50;99.90;;;;;;5237228;27;20236;-81
2024/04/20 06:59:00;;;;;;;7.57;7.00;;;6.60;99.90;;;;;;5241062;27;20295;-82
2024/04/20 07:01:29;;;;;;;12.40;11.60;;;6.80;99.90;;;;;;5247982;27;20241;-79
2024/04/20 07:03:57;;;;;;;9.00;8.30;;;6.90;99.90;;;;;;5244344;27;20590;-82
2024/04/20 07:06:26;;;;;;;12.93;12.00;;;6.90;99.90;;;;;;5243306;27;20241;-81
2024/04/20 07:08:54;;;;;;;9.10;8.40;;;7.00;99.90;;;;;;5256694;27;20598;-82
2024/04/20 07:11:25;;;;;;;9.27;8.60;;;7.20;99.90;;;;;;5238826;27;20247;-79
2024/04/20 07:13:55;;;;;;;8.70;8.10;;;7.30;99.90;;;;;;5249186;27;20737;-80
2024/04/20 07:16:24;;;;;;;12.00;11.20;;;7.40;99.90;;;;;;5252570;27;20234;-80
2024/04/20 07:18:52;;;;;;;11.90;11.10;;;7.50;99.90;;;;;;5282640;27;20820;-80
2024/04/20 07:21:21;;;;;;;11.03;10.23;;;7.50;99.90;;;;;;5250723;27;20234;-79
2024/04/20 07:23:49;;;;;;;11.30;10.60;;;7.50;99.90;;;;;;5254455;27;20423;-80
2024/04/20 07:26:18;;;;;;;11.47;10.57;;;7.50;99.90;;;;;;5247071;27;20292;-80
2024/04/20 07:28:49;;;;;;;11.17;10.37;;;7.40;99.90;;;;;;5248864;27;20271;-79
2024/04/20 07:31:18;;;;;;;6.37;5.97;;;7.30;99.90;;;;;;5240389;27;20254;-79
2024/04/20 07:33:46;;;;;;;10.57;9.87;;;7.30;99.90;;;;;;5261793;27;20275;-80
2024/04/20 07:36:14;;;;;;;10.60;9.90;;;7.30;99.90;;;;;;5248287;27;20706;-76
2024/04/20 07:38:43;;;;;;;10.53;9.83;;;7.50;99.90;;;;;;5254043;27;20242;-82
2024/04/20 07:41:11;;;;;;;7.00;6.50;;;7.50;99.90;;;;;;5242571;27;20605;-81
2024/04/20 07:43:40;;;;;;;8.13;5.83;;;7.60;99.90;;;;;;5243021;27;20266;-82
2024/04/20 07:46:11;;;;;;;9.77;9.17;;;7.70;99.90;;;;;;5246606;27;20248;-79
2024/04/20 07:48:41;;;;;;;10.87;10.10;;;7.70;99.90;;;;;;5241772;27;20287;-79
2024/04/20 07:51:10;;;;;;;11.30;10.47;;;7.80;99.90;;;;;;5257800;27;20838;-78
2024/04/20 07:53:38;;;;;;;7.47;6.87;;;8.10;99.90;;;;;;5237082;27;20238;-78
2024/04/20 07:56:07;;;;;;;10.37;9.63;;;8.30;99.90;;;;;;5257554;27;20765;-78
2024/04/20 07:58:35;;;;;;;9.90;9.30;;;8.30;99.90;;;;;;5250607;27;20336;-80
2024/04/20 08:01:04;;;;;;;10.90;10.13;;;8.40;99.90;;;;;;5260387;27;20272;-82
2024/04/20 08:03:35;;;;;;;10.17;9.47;;;8.50;99.90;;;;;;5239383;27;20306;-83
2024/04/20 08:06:04;;;;;;;10.77;10.07;;;8.50;99.90;;;;;;5236505;27;20497;-83
2024/04/20 08:08:32;;;;;;;11.33;10.43;;;8.50;99.90;;;;;;5254102;27;20247;-82
2024/04/20 08:11:01;;;;;;;10.13;9.43;;;8.40;99.90;;;;;;5268689;27;20253;-82
2024/04/20 08:13:29;;;;;;;6.80;6.10;;;8.50;99.90;;;;;;5281800;27;20283;-81
2024/04/20 08:15:58;;;;;;;5.03;3.90;;;8.60;99.90;;;;;;5242756;27;20245;-82
2024/04/20 08:18:26;;;;;;;3.50;3.20;;;8.70;99.90;;;;;;5237096;27;20243;-82
2024/04/20 08:20:57;;;;;;;3.23;2.93;;;8.70;99.90;;;;;;5235322;27;20290;-81
2024/04/20 08:23:26;;;;;;;3.57;3.00;;;8.70;99.90;;;;;;5237908;27;20351;-82
2024/04/20 08:25:54;;;;;;;5.17;3.37;;;8.60;99.90;;;;;;5258505;27;20643;-82
2024/04/20 08:28:23;;;;;;;4.97;3.17;;;8.50;99.90;;;;;;5249598;27;20244;-82
2024/04/20 08:30:51;;;;;;;3.50;3.20;;;8.40;99.90;;;;;;5254998;27;20264;-83
2024/04/20 08:33:20;;;;;;;3.87;3.00;;;8.40;99.90;;;;;;5275183;27;20241;-82
2024/04/20 08:35:48;;;;;;;3.63;3.00;;;8.50;99.90;;;;;;5250981;27;20247;-82
2024/04/20 08:38:19;;;;;;;6.27;5.67;;;8.60;99.90;;;;;;5246039;27;20292;-84
2024/04/20 08:40:51;;;;;;;5.63;5.23;;;8.50;99.90;;;;;;5244637;27;20738;-83
2024/04/20 08:43:20;;;;;;;5.73;5.23;;;8.60;99.90;;;;;;5243892;27;20333;-82
2024/04/20 08:45:54;;;;;;;5.27;4.87;;;8.70;99.90;;;;;;5253074;27;20233;-83
2024/04/20 08:48:23;;;;;;;5.67;5.00;;;8.80;99.90;;;;;;5247349;27;20892;-83
2024/04/20 08:53:50;;;;;;;4.77;3.20;;;8.70;99.90;;;;;;5229272;27;20248;-87
2024/04/20 08:56:20;;;;;;;3.20;3.00;;;8.60;99.90;;;;;;5255264;27;20238;-80
2024/04/20 08:58:49;;;;;;;4.77;3.20;;;8.60;99.90;;;;;;5247642;27;20234;-79
2024/04/20 09:01:20;;;;;;;3.90;3.23;;;8.60;99.90;;;;;;5252785;27;20242;-80
2024/04/20 09:03:48;;;;;;;3.50;3.17;;;8.70;99.90;;;;;;5234644;27;20561;-80
2024/04/20 09:06:17;;;;;;;5.07;4.73;;;8.60;99.90;;;;;;5250722;27;20239;-79
2024/04/20 09:08:49;;;;;;;4.43;2.60;;;8.50;99.90;;;;;;5258041;27;20294;-80
2024/04/20 09:11:18;;;;;;;4.17;2.60;;;8.40;99.90;;;;;;5250386;27;20277;-79
2024/04/20 09:13:47;;;;;;;2.50;2.40;;;8.50;99.90;;;;;;5240132;27;20336;-81
2024/04/20 09:16:15;;;;;;;3.13;2.77;;;8.60;99.90;;;;;;5247691;27;20305;-80
2024/04/20 09:18:44;;;;;;;3.70;3.00;;;8.70;99.90;;;;;;5242565;27;20239;-81
2024/04/20 09:21:12;;;;;;;3.60;2.80;;;8.80;99.90;;;;;;5246441;27;20327;-80
2024/04/20 09:23:42;;;;;;;2.83;2.63;;;9.00;99.90;;;;;;5255177;27;20281;-77
2024/04/20 09:26:20;;;;;;;2.83;2.57;;;9.20;99.90;;;;;;5253764;27;20698;-78
2024/04/20 09:28:59;;;;;;;8.33;7.83;;;10.00;99.90;;;;;;5253335;27;20598;-78
2024/04/20 09:31:28;;;;;;;9.17;8.53;;;10.60;99.90;;;;;;5245840;27;20241;-78
2024/04/20 09:33:59;;;;;;;5.20;4.80;;;10.70;99.90;;;;;;5246597;27;20305;-77
2024/04/20 09:36:28;;;;;;;7.73;7.23;;;10.80;99.90;;;;;;5236883;27;20270;-78
2024/04/20 09:38:56;;;;;;;3.90;2.60;;;11.20;99.90;;;;;;5246286;27;20640;-79
2024/04/20 09:41:30;;;;;;;5.00;4.50;;;11.30;99.90;;;;;;5254812;27;20237;-77
2024/04/20 09:44:02;;;;;;;3.63;2.83;;;11.10;99.90;;;;;;5245928;27;20273;-80
2024/04/20 09:46:38;;;;;;;3.53;2.80;;;10.70;99.90;;;;;;5276674;27;20307;-79
2024/04/20 09:49:11;;;;;;;5.47;5.07;;;10.20;99.90;;;;;;5241876;27;20271;-80
2024/04/20 09:51:45;;;;;;;7.77;7.07;;;9.80;99.90;;;;;;5255324;27;20288;-81
2024/04/20 09:54:17;;;;;;;9.37;8.63;;;9.40;99.90;;;;;;5251116;27;20294;-81
2024/04/20 09:56:51;;;;;;;6.23;5.70;;;9.10;99.90;;;;;;5254253;27;20275;-79
2024/04/20 09:59:21;;;;;;;8.20;7.70;;;8.90;99.90;;;;;;5248732;27;20314;-81
2024/04/20 10:01:50;;;;;;;8.40;7.80;;;8.80;99.90;;;;;;5252198;27;20293;-82
2024/04/20 10:04:19;;;;;;;9.00;8.30;;;8.60;99.90;;;;;;5252935;27;20243;-81
2024/04/20 10:06:48;;;;;;;8.67;8.00;;;8.60;99.90;;;;;;5254319;27;20293;-81
2024/04/20 10:09:19;;;;;;;9.00;8.30;;;8.70;99.90;;;;;;5251870;27;20293;-81
2024/04/20 10:11:52;;;;;;;8.90;8.00;;;8.90;99.90;;;;;;5248882;27;20253;-82
2024/04/20 10:14:20;;;;;;;8.80;8.20;;;9.30;99.90;;;;;;5246071;27;20240;-80
2024/04/20 10:16:49;;;;;;;9.43;8.80;;;9.70;99.90;;;;;;5244387;27;20791;-81
2024/04/20 10:19:19;;;;;;;4.67;4.13;;;9.80;99.90;;;;;;5257798;27;20255;-81
2024/04/20 10:21:48;;;;;;;4.30;3.90;;;9.80;99.90;;;;;;5244608;27;20248;-81
2024/04/20 10:24:17;;;;;;;9.40;8.57;;;9.80;99.90;;;;;;5253504;27;20277;-82
2024/04/20 10:26:47;;;;;;;8.23;7.73;;;9.80;99.90;;;;;;5256827;27;20240;-81
2024/04/20 10:29:27;;;;;;;8.73;7.97;;;9.60;99.90;;;;;;5253436;27;20874;-80
2024/04/20 10:32:00;;;;;;;8.90;8.30;;;9.60;99.90;;;;;;5257015;27;20236;-80
2024/04/20 10:34:28;;;;;;;9.50;8.80;;;10.00;99.90;;;;;;5249672;27;20633;-81
2024/04/20 10:37:02;;;;;;;9.40;8.70;;;10.40;99.90;;;;;;5253570;27;20362;-81
2024/04/20 10:39:31;;;;;;;8.97;8.37;;;10.90;99.90;;;;;;5246635;27;20260;-83
2024/04/20 10:42:06;;;;;;;8.30;7.70;;;10.80;99.90;;;;;;5259645;27;20238;-82
2024/04/20 10:44:37;;;;;;;8.60;8.10;;;10.80;99.90;;;;;;5256759;27;20247;-81
2024/04/20 10:47:05;;;;;;;6.40;5.90;;;10.80;99.90;;;;;;5257689;27;20591;-80
2024/04/20 10:49:34;;;;;;;8.77;8.07;;;10.80;99.90;;;;;;5250712;27;20597;-81
2024/04/20 10:52:02;;;;;;;5.80;4.97;;;10.60;99.90;;;;;;5253561;27;20276;-81
2024/04/20 10:54:31;;;;;;;5.83;5.43;;;10.30;99.90;;;;;;5250866;27;20286;-81
2024/04/20 10:57:01;;;;;;;9.43;8.83;;;10.10;99.90;;;;;;5254247;27;20283;-81
2024/04/20 10:59:29;;;;;;;9.40;8.70;;;10.00;99.90;;;;;;5246976;27;20245;-81
2024/04/20 11:02:00;;;;;;;8.97;8.37;;;10.10;99.90;;;;;;5252834;27;20318;-81
2024/04/20 11:04:32;;;;;;;8.73;8.13;;;10.10;99.90;;;;;;5259419;27;20592;-82
2024/04/20 11:07:05;;;;;;;8.80;8.13;;;10.20;99.90;;;;;;5252175;27;20293;-79
2024/04/20 11:09:33;;;;;;;9.67;8.77;;;10.50;99.90;;;;;;5254090;27;20288;-79
2024/04/20 11:12:03;;;;;;;4.97;4.57;;;10.70;99.90;;;;;;5233609;27;21009;-78
2024/04/20 11:14:33;;;;;;;5.23;4.90;;;10.70;99.90;;;;;;5240737;27;20627;-78
2024/04/20 11:17:05;;;;;;;5.70;4.10;;;10.60;99.90;;;;;;5247660;27;20268;-79
2024/04/20 11:19:35;;;;;;;8.40;7.70;;;10.60;99.90;;;;;;5256224;27;20626;-79
2024/04/20 11:22:04;;;;;;;6.90;6.27;;;10.70;99.90;;;;;;5251516;27;20340;-79
2024/04/20 11:24:35;;;;;;;3.60;3.03;;;10.80;99.90;;;;;;5255058;27;20284;-78
2024/04/20 11:27:05;;;;;;;5.80;3.93;;;11.00;99.90;;;;;;5249134;27;20269;-79
2024/04/20 11:29:35;;;;;;;7.10;6.67;;;11.00;99.90;;;;;;5252677;27;20267;-79
2024/04/20 11:32:07;;;;;;;8.30;7.70;;;10.80;99.90;;;;;;5234943;27;20241;-79
2024/04/20 11:34:35;;;;;;;7.27;6.67;;;10.70;99.90;;;;;;5252662;27;20242;-79
2024/04/20 11:37:04;;;;;;;7.13;5.87;;;10.70;99.90;;;;;;5256992;27;20245;-79
2024/04/20 11:39:32;;;;;;;9.53;8.93;;;10.70;99.90;;;;;;5249315;27;20242;-82
2024/04/20 11:42:07;;;;;;;8.97;8.27;;;10.40;99.90;;;;;;5243511;27;20745;-83
2024/04/20 11:44:57;;;;;;;8.70;8.07;;;10.10;99.90;;;;;;5238101;27;20242;-84
2024/04/20 11:47:35;;;;;;;11.30;10.50;;;10.20;99.90;;;;;;5245858;27;20246;-84
2024/04/20 11:50:13;;;;;;;8.90;8.17;;;10.40;99.90;;;;;;5269341;27;20257;-84
2024/04/20 11:55:51;;;;;;;10.40;9.67;;;10.50;99.90;;;;;;5247572;27;20300;-79
2024/04/20 11:58:19;;;;;;;8.40;7.90;;;10.50;99.90;;;;;;5269533;27;20348;-79
2024/04/20 12:00:52;;;;;;;7.97;7.37;;;10.50;99.90;;;;;;5269100;27;20288;-80
2024/04/20 12:03:24;;;;;;;9.60;8.90;;;10.50;99.90;;;;;;5254055;27;20601;-79
2024/04/20 12:05:52;;;;;;;8.63;8.07;;;10.60;99.90;;;;;;5242928;27;20748;-80
2024/04/20 12:08:21;;;;;;;8.87;8.13;;;10.80;99.90;;;;;;5250707;27;20244;-80
2024/04/20 12:10:49;;;;;;;8.37;7.77;;;11.10;99.90;;;;;;5255033;27;20237;-80
2024/04/20 12:13:17;;;;;;;8.10;7.60;;;11.30;99.90;;;;;;5245334;27;20251;-78
2024/04/20 12:15:46;;;;;;;9.07;8.37;;;11.50;99.90;;;;;;5237480;27;20285;-79
2024/04/20 12:18:14;;;;;;;8.10;7.60;;;11.60;99.90;;;;;;5230158;27;20245;-79
2024/04/20 12:20:47;;;;;;;8.10;7.50;;;11.60;99.90;;;;;;5245816;27;20244;-79
2024/04/20 12:23:15;;;;;;;8.50;7.77;;;11.50;99.90;;;;;;5234336;27;20257;-79
2024/04/20 12:25:49;;;;;;;8.67;7.90;;;11.50;99.90;;;;;;5242230;27;20237;-79
2024/04/20 12:28:17;;;;;;;8.10;7.50;;;11.70;99.90;;;;;;5241600;27;20766;-78
2024/04/20 12:30:46;;;;;;;8.47;7.80;;;11.80;99.90;;;;;;5241058;27;20638;-79
2024/04/20 12:33:15;;;;;;;7.17;6.67;;;12.10;99.90;;;;;;5241219;27;20234;-82
2024/04/20 12:35:47;;;;;;;5.77;3.80;;;12.20;99.90;;;;;;5266713;27;20288;-82
2024/04/20 12:38:15;;;;;;;5.60;5.20;;;12.10;99.90;;;;;;5240406;27;20238;-78
2024/04/20 12:40:44;;;;;;;7.73;7.20;;;12.10;99.90;;;;;;5241613;27;20285;-78
2024/04/20 12:43:12;;;;;;;6.33;5.67;;;12.00;99.90;;;;;;5258497;27;20762;-79
2024/04/20 12:45:41;;;;;;;5.50;5.07;;;12.00;99.90;;;;;;5240210;27;20284;-78
2024/04/20 12:48:10;;;;;;;6.00;5.50;;;12.20;99.90;;;;;;5234936;27;20288;-78
2024/04/20 12:50:39;;;;;;;8.63;7.83;;;12.10;99.90;;;;;;5248152;27;20281;-78
2024/04/20 12:53:10;;;;;;;12.70;11.80;;;12.00;99.90;;;;;;5241776;27;20276;-78
2024/04/20 12:55:38;;;;;;;4.87;3.67;;;12.00;99.90;;;;;;5273224;27;20759;-78
2024/04/20 12:58:07;;;;;;;7.90;7.23;;;12.00;99.90;;;;;;5241360;27;20356;-78
2024/04/20 13:00:35;;;;;;;7.60;7.10;;;12.20;99.90;;;;;;5239635;27;20297;-78